sensor_id;sensor_type;location;lat;lon;timestamp;pressure;altitude;pressure_sealevel;temperature;humidity
39999;BME280;25696;42.646;23.368;2022-09-09T00:00:05;94736.63;;;20.75;66.46
39999;BME280;25696;42.646;23.368;2022-09-09T00:02:31;94734.03;;;20.58;67.06
39999;BME280;25696;42.646;23.368;2022-09-09T00:07:43;94717.84;;;20.57;67.56
39999;BME280;25696;42.646;23.368;2022-09-09T00:15:22;94736.78;;;20.63;67.13
39999;BME280;25696;42.646;23.368;2022-09-09T00:22:53;94727.31;;;20.44;67.96
39999;BME280;25696;42.646;23.368;2022-09-09T00:25:42;94720.28;;;20.53;67.92
39999;BME280;25696;42.646;23.368;2022-09-09T00:28:19;94713.44;;;20.51;67.82
39999;BME280;25696;42.646;23.368;2022-09-09T00:30:45;94703.19;;;20.10;68.43
39999;BME280;25696;42.646;23.368;2022-09-09T00:33:15;94703.69;;;19.75;70.13
39999;BME280;25696;42.646;23.368;2022-09-09T00:35:44;94705.16;;;20.14;68.91
39999;BME280;25696;42.646;23.368;2022-09-09T00:38:18;94701.16;;;20.22;68.53
39999;BME280;25696;42.646;23.368;2022-09-09T00:40:52;94695.38;;;19.65;70.75
39999;BME280;25696;42.646;23.368;2022-09-09T00:48:14;94680.31;;;18.97;72.80
39999;BME280;25696;42.646;23.368;2022-09-09T00:50:48;94677.34;;;18.99;72.79
39999;BME280;25696;42.646;23.368;2022-09-09T00:55:49;94686.88;;;18.96;72.15
39999;BME280;25696;42.646;23.368;2022-09-09T00:58:17;94685.88;;;18.64;73.70
39999;BME280;25696;42.646;23.368;2022-09-09T01:03:19;94689.69;;;18.63;72.99
39999;BME280;25696;42.646;23.368;2022-09-09T01:06:12;94683.88;;;18.60;72.50
39999;BME280;25696;42.646;23.368;2022-09-09T01:11:25;94680.94;;;18.44;72.98
39999;BME280;25696;42.646;23.368;2022-09-09T01:14:01;94679.53;;;18.59;72.00
39999;BME280;25696;42.646;23.368;2022-09-09T01:16:29;94687.69;;;18.59;71.92
39999;BME280;25696;42.646;23.368;2022-09-09T01:18:55;94685.88;;;18.48;72.80
39999;BME280;25696;42.646;23.368;2022-09-09T01:26:39;94690.00;;;18.67;73.26
39999;BME280;25696;42.646;23.368;2022-09-09T01:29:10;94688.41;;;18.71;72.34
39999;BME280;25696;42.646;23.368;2022-09-09T01:31:38;94678.81;;;19.06;71.06
39999;BME280;25696;42.646;23.368;2022-09-09T01:34:14;94679.44;;;18.92;71.65
39999;BME280;25696;42.646;23.368;2022-09-09T01:39:08;94686.97;;;19.28;70.73
39999;BME280;25696;42.646;23.368;2022-09-09T01:41:33;94703.78;;;19.58;69.81
39999;BME280;25696;42.646;23.368;2022-09-09T01:43:58;94712.91;;;19.69;69.72
39999;BME280;25696;42.646;23.368;2022-09-09T01:46:24;94703.53;;;19.86;69.04
39999;BME280;25696;42.646;23.368;2022-09-09T01:48:50;94703.84;;;19.90;69.00
39999;BME280;25696;42.646;23.368;2022-09-09T01:51:16;94699.88;;;20.02;68.15
39999;BME280;25696;42.646;23.368;2022-09-09T01:53:42;94704.34;;;19.87;69.26
39999;BME280;25696;42.646;23.368;2022-09-09T02:03:51;94715.25;;;19.82;69.02
39999;BME280;25696;42.646;23.368;2022-09-09T02:06:36;94705.44;;;19.86;68.77
39999;BME280;25696;42.646;23.368;2022-09-09T02:09:04;94703.47;;;19.81;68.53
39999;BME280;25696;42.646;23.368;2022-09-09T02:11:30;94699.75;;;19.66;68.65
39999;BME280;25696;42.646;23.368;2022-09-09T02:14:00;94706.91;;;19.45;69.26
39999;BME280;25696;42.646;23.368;2022-09-09T02:19:00;94695.59;;;19.15;71.20
39999;BME280;25696;42.646;23.368;2022-09-09T02:21:27;94685.22;;;18.57;73.79
39999;BME280;25696;42.646;23.368;2022-09-09T02:23:54;94686.38;;;18.61;74.37
39999;BME280;25696;42.646;23.368;2022-09-09T02:26:21;94679.59;;;18.47;74.43
39999;BME280;25696;42.646;23.368;2022-09-09T02:28:48;94680.34;;;18.59;74.20
39999;BME280;25696;42.646;23.368;2022-09-09T02:31:15;94682.34;;;18.85;73.54
39999;BME280;25696;42.646;23.368;2022-09-09T02:33:42;94696.38;;;19.15;71.24
39999;BME280;25696;42.646;23.368;2022-09-09T02:36:10;94697.22;;;19.16;69.27
39999;BME280;25696;42.646;23.368;2022-09-09T02:38:38;94697.34;;;19.04;69.00
39999;BME280;25696;42.646;23.368;2022-09-09T02:41:05;94698.28;;;18.93;70.34
39999;BME280;25696;42.646;23.368;2022-09-09T02:43:34;94702.81;;;19.04;69.98
39999;BME280;25696;42.646;23.368;2022-09-09T02:48:36;94705.50;;;18.83;70.06
39999;BME280;25696;42.646;23.368;2022-09-09T02:53:52;94719.13;;;18.61;72.34
39999;BME280;25696;42.646;23.368;2022-09-09T02:56:20;94713.41;;;18.63;73.25
39999;BME280;25696;42.646;23.368;2022-09-09T02:58:47;94715.00;;;18.80;72.57
39999;BME280;25696;42.646;23.368;2022-09-09T03:01:12;94703.88;;;18.82;72.56
39999;BME280;25696;42.646;23.368;2022-09-09T03:03:37;94707.03;;;18.74;73.06
39999;BME280;25696;42.646;23.368;2022-09-09T03:06:03;94708.59;;;18.70;73.72
39999;BME280;25696;42.646;23.368;2022-09-09T03:08:28;94707.50;;;18.71;73.85
39999;BME280;25696;42.646;23.368;2022-09-09T03:10:54;94712.47;;;18.74;73.60
39999;BME280;25696;42.646;23.368;2022-09-09T03:13:19;94703.88;;;18.82;73.88
39999;BME280;25696;42.646;23.368;2022-09-09T03:15:45;94714.97;;;18.97;72.94
39999;BME280;25696;42.646;23.368;2022-09-09T03:18:10;94715.06;;;19.02;72.76
39999;BME280;25696;42.646;23.368;2022-09-09T03:20:35;94719.50;;;19.08;72.84
39999;BME280;25696;42.646;23.368;2022-09-09T03:23:01;94719.81;;;19.11;72.62
39999;BME280;25696;42.646;23.368;2022-09-09T03:25:33;94723.38;;;19.12;72.62
39999;BME280;25696;42.646;23.368;2022-09-09T03:27:58;94707.66;;;19.19;72.66
39999;BME280;25696;42.646;23.368;2022-09-09T03:30:24;94700.63;;;19.28;72.00
39999;BME280;25696;42.646;23.368;2022-09-09T03:32:50;94709.66;;;19.28;72.04
39999;BME280;25696;42.646;23.368;2022-09-09T03:35:16;94712.66;;;19.27;71.69
39999;BME280;25696;42.646;23.368;2022-09-09T03:37:41;94712.13;;;19.30;71.59
39999;BME280;25696;42.646;23.368;2022-09-09T03:40:07;94704.13;;;19.40;71.54
39999;BME280;25696;42.646;23.368;2022-09-09T03:42:35;94712.66;;;19.27;71.73
39999;BME280;25696;42.646;23.368;2022-09-09T03:45:02;94709.00;;;19.38;71.31
39999;BME280;25696;42.646;23.368;2022-09-09T03:47:27;94705.53;;;19.26;71.60
39999;BME280;25696;42.646;23.368;2022-09-09T03:49:56;94706.03;;;19.40;71.31
39999;BME280;25696;42.646;23.368;2022-09-09T03:52:22;94712.09;;;19.47;70.83
39999;BME280;25696;42.646;23.368;2022-09-09T03:54:50;94715.38;;;19.05;72.34
39999;BME280;25696;42.646;23.368;2022-09-09T03:57:16;94716.69;;;18.81;72.77
39999;BME280;25696;42.646;23.368;2022-09-09T03:59:42;94714.34;;;18.90;73.16
39999;BME280;25696;42.646;23.368;2022-09-09T04:02:07;94718.44;;;19.09;73.21
39999;BME280;25696;42.646;23.368;2022-09-09T04:04:32;94722.69;;;19.21;72.34
39999;BME280;25696;42.646;23.368;2022-09-09T04:06:58;94717.69;;;19.35;71.20
39999;BME280;25696;42.646;23.368;2022-09-09T04:09:23;94729.88;;;19.49;70.58
39999;BME280;25696;42.646;23.368;2022-09-09T04:11:48;94725.91;;;19.57;70.56
39999;BME280;25696;42.646;23.368;2022-09-09T04:14:14;94726.75;;;19.62;70.44
39999;BME280;25696;42.646;23.368;2022-09-09T04:16:40;94720.13;;;19.80;69.92
39999;BME280;25696;42.646;23.368;2022-09-09T04:19:09;94717.53;;;19.68;70.02
39999;BME280;25696;42.646;23.368;2022-09-09T04:21:37;94711.06;;;19.74;70.07
39999;BME280;25696;42.646;23.368;2022-09-09T04:24:02;94713.88;;;19.84;69.59
39999;BME280;25696;42.646;23.368;2022-09-09T04:26:28;94710.69;;;19.92;69.54
39999;BME280;25696;42.646;23.368;2022-09-09T04:28:53;94717.38;;;19.53;70.23
39999;BME280;25696;42.646;23.368;2022-09-09T04:31:19;94716.88;;;19.56;70.43
39999;BME280;25696;42.646;23.368;2022-09-09T04:33:46;94716.16;;;19.92;69.05
39999;BME280;25696;42.646;23.368;2022-09-09T04:36:12;94718.31;;;19.64;69.63
39999;BME280;25696;42.646;23.368;2022-09-09T04:38:37;94714.91;;;19.78;68.65
39999;BME280;25696;42.646;23.368;2022-09-09T04:41:03;94725.16;;;19.88;68.11
39999;BME280;25696;42.646;23.368;2022-09-09T04:43:28;94726.19;;;19.82;68.50
39999;BME280;25696;42.646;23.368;2022-09-09T04:45:55;94735.81;;;19.89;68.31
39999;BME280;25696;42.646;23.368;2022-09-09T04:48:21;94738.38;;;19.74;68.76
39999;BME280;25696;42.646;23.368;2022-09-09T04:50:53;94738.06;;;19.71;68.92
39999;BME280;25696;42.646;23.368;2022-09-09T04:53:19;94719.44;;;19.68;68.99
39999;BME280;25696;42.646;23.368;2022-09-09T04:55:44;94716.34;;;19.59;70.02
39999;BME280;25696;42.646;23.368;2022-09-09T04:58:09;94709.31;;;19.42;70.68
39999;BME280;25696;42.646;23.368;2022-09-09T05:00:35;94702.44;;;19.61;70.07
39999;BME280;25696;42.646;23.368;2022-09-09T05:03:04;94704.75;;;19.74;69.62
39999;BME280;25696;42.646;23.368;2022-09-09T05:05:30;94702.63;;;20.08;68.18
39999;BME280;25696;42.646;23.368;2022-09-09T05:08:00;94705.63;;;20.33;66.18
39999;BME280;25696;42.646;23.368;2022-09-09T05:10:25;94696.38;;;20.75;64.91
39999;BME280;25696;42.646;23.368;2022-09-09T05:12:54;94691.88;;;20.54;64.53
39999;BME280;25696;42.646;23.368;2022-09-09T05:15:19;94685.41;;;20.34;64.30
39999;BME280;25696;42.646;23.368;2022-09-09T05:17:46;94695.88;;;20.47;64.44
39999;BME280;25696;42.646;23.368;2022-09-09T05:20:11;94700.38;;;21.00;61.95
39999;BME280;25696;42.646;23.368;2022-09-09T05:22:37;94706.44;;;21.07;61.47
39999;BME280;25696;42.646;23.368;2022-09-09T05:25:02;94687.56;;;21.05;61.25
39999;BME280;25696;42.646;23.368;2022-09-09T05:27:28;94685.09;;;21.71;59.35
39999;BME280;25696;42.646;23.368;2022-09-09T05:29:53;94678.88;;;22.00;58.68
39999;BME280;25696;42.646;23.368;2022-09-09T05:32:18;94684.66;;;22.94;56.09
39999;BME280;25696;42.646;23.368;2022-09-09T05:34:44;94688.31;;;23.64;52.72
39999;BME280;25696;42.646;23.368;2022-09-09T05:37:09;94685.09;;;23.95;51.34
39999;BME280;25696;42.646;23.368;2022-09-09T05:39:35;94691.69;;;24.43;49.92
39999;BME280;25696;42.646;23.368;2022-09-09T05:42:01;94693.31;;;24.49;49.49
39999;BME280;25696;42.646;23.368;2022-09-09T05:44:27;94680.44;;;25.55;47.19
39999;BME280;25696;42.646;23.368;2022-09-09T05:46:54;94688.84;;;26.48;45.59
39999;BME280;25696;42.646;23.368;2022-09-09T05:49:19;94695.50;;;27.43;43.23
39999;BME280;25696;42.646;23.368;2022-09-09T05:51:44;94706.38;;;28.93;39.67
39999;BME280;25696;42.646;23.368;2022-09-09T05:54:10;94701.28;;;29.08;38.07
39999;BME280;25696;42.646;23.368;2022-09-09T05:56:35;94695.22;;;29.06;37.28
39999;BME280;25696;42.646;23.368;2022-09-09T05:59:00;94693.41;;;29.94;36.66
39999;BME280;25696;42.646;23.368;2022-09-09T06:01:27;94688.19;;;30.66;36.13
39999;BME280;25696;42.646;23.368;2022-09-09T06:03:53;94702.22;;;30.61;35.82
39999;BME280;25696;42.646;23.368;2022-09-09T06:06:19;94703.72;;;31.10;35.38
39999;BME280;25696;42.646;23.368;2022-09-09T06:08:45;94707.47;;;30.79;35.48
39999;BME280;25696;42.646;23.368;2022-09-09T06:11:15;94716.78;;;30.49;35.48
39999;BME280;25696;42.646;23.368;2022-09-09T06:13:41;94717.09;;;30.39;36.05
39999;BME280;25696;42.646;23.368;2022-09-09T06:16:10;94717.09;;;30.39;35.57
39999;BME280;25696;42.646;23.368;2022-09-09T06:18:36;94714.66;;;30.55;35.37
39999;BME280;25696;42.646;23.368;2022-09-09T06:21:02;94713.19;;;31.00;33.83
39999;BME280;25696;42.646;23.368;2022-09-09T06:23:31;94706.97;;;30.77;34.36
39999;BME280;25696;42.646;23.368;2022-09-09T06:26:01;94711.72;;;30.51;34.29
39999;BME280;25696;42.646;23.368;2022-09-09T06:28:26;94722.69;;;31.25;33.70
39999;BME280;25696;42.646;23.368;2022-09-09T06:31:02;94719.25;;;30.76;34.91
39999;BME280;25696;42.646;23.368;2022-09-09T06:33:36;94709.38;;;30.36;35.24
39999;BME280;25696;42.646;23.368;2022-09-09T06:36:04;94709.97;;;30.16;35.09
39999;BME280;25696;42.646;23.368;2022-09-09T06:38:30;94710.81;;;29.77;36.29
39999;BME280;25696;42.646;23.368;2022-09-09T06:40:56;94706.22;;;30.12;36.13
39999;BME280;25696;42.646;23.368;2022-09-09T06:43:22;94698.38;;;30.14;35.53
39999;BME280;25696;42.646;23.368;2022-09-09T06:46:02;94708.06;;;29.86;35.61
39999;BME280;25696;42.646;23.368;2022-09-09T06:48:28;94710.34;;;28.29;38.14
39999;BME280;25696;42.646;23.368;2022-09-09T06:51:02;94705.16;;;28.49;37.88
39999;BME280;25696;42.646;23.368;2022-09-09T06:53:28;94715.44;;;28.49;38.39
39999;BME280;25696;42.646;23.368;2022-09-09T06:55:53;94713.78;;;28.61;38.45
39999;BME280;25696;42.646;23.368;2022-09-09T06:58:19;94718.56;;;28.70;38.25
39999;BME280;25696;42.646;23.368;2022-09-09T07:00:46;94723.16;;;28.38;38.73
39999;BME280;25696;42.646;23.368;2022-09-09T07:03:12;94725.63;;;28.40;39.40
39999;BME280;25696;42.646;23.368;2022-09-09T07:05:38;94725.81;;;28.30;39.33
39999;BME280;25696;42.646;23.368;2022-09-09T07:08:03;94716.56;;;28.48;39.00
39999;BME280;25696;42.646;23.368;2022-09-09T07:10:29;94722.41;;;28.11;39.67
39999;BME280;25696;42.646;23.368;2022-09-09T07:12:54;94715.09;;;28.01;39.55
39999;BME280;25696;42.646;23.368;2022-09-09T07:15:19;94723.91;;;27.90;39.62
39999;BME280;25696;42.646;23.368;2022-09-09T07:17:45;94717.06;;;28.14;39.13
39999;BME280;25696;42.646;23.368;2022-09-09T07:20:11;94713.59;;;28.44;37.82
39999;BME280;25696;42.646;23.368;2022-09-09T07:22:40;94716.38;;;28.80;37.92
39999;BME280;25696;42.646;23.368;2022-09-09T07:25:06;94715.25;;;28.81;37.29
39999;BME280;25696;42.646;23.368;2022-09-09T07:27:31;94718.81;;;28.59;37.14
39999;BME280;25696;42.646;23.368;2022-09-09T07:29:57;94709.06;;;28.62;36.83
39999;BME280;25696;42.646;23.368;2022-09-09T07:32:25;94708.25;;;27.99;38.19
39999;BME280;25696;42.646;23.368;2022-09-09T07:34:51;94707.03;;;28.05;38.00
39999;BME280;25696;42.646;23.368;2022-09-09T07:37:17;94703.84;;;27.57;39.33
39999;BME280;25696;42.646;23.368;2022-09-09T07:39:42;94698.41;;;28.06;38.73
39999;BME280;25696;42.646;23.368;2022-09-09T07:42:08;94704.06;;;28.37;38.78
39999;BME280;25696;42.646;23.368;2022-09-09T07:44:35;94710.72;;;28.85;37.87
39999;BME280;25696;42.646;23.368;2022-09-09T07:47:03;94706.19;;;29.33;36.42
39999;BME280;25696;42.646;23.368;2022-09-09T07:49:29;94717.06;;;29.83;35.56
39999;BME280;25696;42.646;23.368;2022-09-09T07:51:54;94706.84;;;30.09;34.31
39999;BME280;25696;42.646;23.368;2022-09-09T07:54:19;94710.78;;;29.69;35.05
39999;BME280;25696;42.646;23.368;2022-09-09T07:56:45;94706.91;;;29.17;36.07
39999;BME280;25696;42.646;23.368;2022-09-09T07:59:11;94709.47;;;29.35;35.18
39999;BME280;25696;42.646;23.368;2022-09-09T08:01:41;94710.34;;;29.22;36.02
39999;BME280;25696;42.646;23.368;2022-09-09T08:04:08;94702.81;;;29.45;35.85
39999;BME280;25696;42.646;23.368;2022-09-09T08:06:38;94705.38;;;29.72;35.17
39999;BME280;25696;42.646;23.368;2022-09-09T08:09:04;94706.41;;;29.76;35.55
39999;BME280;25696;42.646;23.368;2022-09-09T08:11:30;94707.38;;;30.19;34.64
39999;BME280;25696;42.646;23.368;2022-09-09T08:13:55;94713.66;;;30.42;34.55
39999;BME280;25696;42.646;23.368;2022-09-09T08:16:28;94709.50;;;28.78;36.57
39999;BME280;25696;42.646;23.368;2022-09-09T08:18:55;94711.28;;;28.38;37.37
39999;BME280;25696;42.646;23.368;2022-09-09T08:21:25;94713.50;;;28.85;36.46
39999;BME280;25696;42.646;23.368;2022-09-09T08:23:53;94714.72;;;28.57;36.83
39999;BME280;25696;42.646;23.368;2022-09-09T08:26:20;94702.19;;;28.59;36.90
39999;BME280;25696;42.646;23.368;2022-09-09T08:28:49;94707.81;;;29.34;36.28
39999;BME280;25696;42.646;23.368;2022-09-09T08:31:19;94701.19;;;29.75;35.43
39999;BME280;25696;42.646;23.368;2022-09-09T08:33:44;94698.19;;;30.02;34.81
39999;BME280;25696;42.646;23.368;2022-09-09T08:36:19;94706.56;;;30.28;34.26
39999;BME280;25696;42.646;23.368;2022-09-09T08:38:47;94698.69;;;30.21;34.13
39999;BME280;25696;42.646;23.368;2022-09-09T08:43:38;94702.88;;;30.49;33.69
39999;BME280;25696;42.646;23.368;2022-09-09T08:46:25;94702.72;;;30.71;33.78
39999;BME280;25696;42.646;23.368;2022-09-09T08:51:42;94696.63;;;29.79;35.04
39999;BME280;25696;42.646;23.368;2022-09-09T08:54:08;94700.47;;;29.69;34.81
39999;BME280;25696;42.646;23.368;2022-09-09T08:56:34;94696.03;;;29.60;35.37
39999;BME280;25696;42.646;23.368;2022-09-09T08:59:03;94688.50;;;29.29;36.12
39999;BME280;25696;42.646;23.368;2022-09-09T09:01:35;94685.34;;;29.75;34.94
39999;BME280;25696;42.646;23.368;2022-09-09T09:11:47;94684.91;;;30.64;33.90
39999;BME280;25696;42.646;23.368;2022-09-09T09:14:25;94682.19;;;30.16;35.34
39999;BME280;25696;42.646;23.368;2022-09-09T09:19:16;94679.50;;;30.59;35.16
39999;BME280;25696;42.646;23.368;2022-09-09T09:21:45;94688.69;;;30.85;34.64
39999;BME280;25696;42.646;23.368;2022-09-09T09:26:40;94680.66;;;31.01;34.18
39999;BME280;25696;42.646;23.368;2022-09-09T09:29:12;94673.16;;;30.92;34.25
39999;BME280;25696;42.646;23.368;2022-09-09T09:31:50;94675.91;;;30.84;34.33
39999;BME280;25696;42.646;23.368;2022-09-09T09:34:16;94691.13;;;30.95;34.73
39999;BME280;25696;42.646;23.368;2022-09-09T09:39:09;94686.03;;;30.46;35.03
39999;BME280;25696;42.646;23.368;2022-09-09T09:41:39;94684.56;;;30.57;34.81
39999;BME280;25696;42.646;23.368;2022-09-09T09:44:05;94678.03;;;30.70;34.52
39999;BME280;25696;42.646;23.368;2022-09-09T09:46:32;94666.09;;;30.35;35.07
39999;BME280;25696;42.646;23.368;2022-09-09T09:49:01;94667.59;;;29.85;35.75
39999;BME280;25696;42.646;23.368;2022-09-09T09:51:28;94663.47;;;30.30;35.39
39999;BME280;25696;42.646;23.368;2022-09-09T09:54:02;94660.31;;;31.43;33.75
39999;BME280;25696;42.646;23.368;2022-09-09T09:56:30;94661.69;;;31.66;32.95
39999;BME280;25696;42.646;23.368;2022-09-09T09:58:57;94650.00;;;31.43;33.49
39999;BME280;25696;42.646;23.368;2022-09-09T10:01:24;94656.69;;;31.34;33.95
39999;BME280;25696;42.646;23.368;2022-09-09T10:03:51;94652.03;;;31.63;33.40
39999;BME280;25696;42.646;23.368;2022-09-09T10:06:28;94651.16;;;32.38;32.89
39999;BME280;25696;42.646;23.368;2022-09-09T10:08:53;94651.53;;;32.78;31.93
39999;BME280;25696;42.646;23.368;2022-09-09T10:19:32;94666.63;;;31.60;33.37
39999;BME280;25696;42.646;23.368;2022-09-09T10:33:20;94664.97;;;30.62;35.35
39999;BME280;25696;42.646;23.368;2022-09-09T10:35:29;94678.84;;;30.53;36.28
39999;BME280;25696;42.646;23.368;2022-09-09T10:38:12;94670.19;;;30.63;36.71
39999;BME280;25696;42.646;23.368;2022-09-09T10:43:08;94661.03;;;30.37;36.38
39999;BME280;25696;42.646;23.368;2022-09-09T10:45:43;94665.72;;;30.28;36.25
39999;BME280;25696;42.646;23.368;2022-09-09T10:51:17;94674.44;;;29.79;38.38
39999;BME280;25696;42.646;23.368;2022-09-09T10:53:51;94678.59;;;29.68;37.46
39999;BME280;25696;42.646;23.368;2022-09-09T10:56:18;94670.44;;;29.71;37.80
39999;BME280;25696;42.646;23.368;2022-09-09T11:01:19;94662.16;;;29.40;39.20
39999;BME280;25696;42.646;23.368;2022-09-09T11:03:47;94666.47;;;29.24;38.92
39999;BME280;25696;42.646;23.368;2022-09-09T11:06:16;94664.53;;;29.25;37.69
39999;BME280;25696;42.646;23.368;2022-09-09T11:08:43;94665.47;;;29.20;38.26
39999;BME280;25696;42.646;23.368;2022-09-09T11:11:17;94671.03;;;29.20;38.57
39999;BME280;25696;42.646;23.368;2022-09-09T11:13:49;94673.25;;;29.40;38.00
39999;BME280;25696;42.646;23.368;2022-09-09T11:16:22;94673.91;;;29.37;39.63
39999;BME280;25696;42.646;23.368;2022-09-09T11:18:50;94668.03;;;29.39;39.56
39999;BME280;25696;42.646;23.368;2022-09-09T11:21:23;94675.91;;;29.46;39.52
39999;BME280;25696;42.646;23.368;2022-09-09T11:23:59;94658.13;;;29.55;39.60
39999;BME280;25696;42.646;23.368;2022-09-09T11:26:33;94655.69;;;29.54;39.46
39999;BME280;25696;42.646;23.368;2022-09-09T11:29:20;94643.16;;;29.65;38.91
39999;BME280;25696;42.646;23.368;2022-09-09T11:31:54;94645.69;;;29.92;38.26
39999;BME280;25696;42.646;23.368;2022-09-09T11:37:19;94635.63;;;29.96;37.96
39999;BME280;25696;42.646;23.368;2022-09-09T11:39:56;94626.63;;;29.99;37.34
39999;BME280;25696;42.646;23.368;2022-09-09T11:42:24;94617.06;;;29.26;38.51
39999;BME280;25696;42.646;23.368;2022-09-09T11:44:50;94625.97;;;29.15;39.69
39999;BME280;25696;42.646;23.368;2022-09-09T11:47:24;94623.38;;;28.96;39.70
39999;BME280;25696;42.646;23.368;2022-09-09T11:49:54;94613.13;;;29.19;39.95
39999;BME280;25696;42.646;23.368;2022-09-09T11:52:24;94596.38;;;29.41;39.28
39999;BME280;25696;42.646;23.368;2022-09-09T11:54:51;94581.34;;;29.73;38.37
39999;BME280;25696;42.646;23.368;2022-09-09T11:57:32;94567.97;;;29.75;38.49
39999;BME280;25696;42.646;23.368;2022-09-09T11:59:59;94569.16;;;29.43;38.98
39999;BME280;25696;42.646;23.368;2022-09-09T12:02:26;94575.50;;;29.44;38.76
39999;BME280;25696;42.646;23.368;2022-09-09T12:04:55;94581.78;;;29.66;38.24
39999;BME280;25696;42.646;23.368;2022-09-09T12:07:37;94593.44;;;29.77;38.15
39999;BME280;25696;42.646;23.368;2022-09-09T12:12:35;94585.06;;;29.68;38.97
39999;BME280;25696;42.646;23.368;2022-09-09T12:17:46;94574.03;;;29.85;38.59
39999;BME280;25696;42.646;23.368;2022-09-09T12:25:30;94574.69;;;30.08;38.68
39999;BME280;25696;42.646;23.368;2022-09-09T12:30:31;94570.09;;;29.86;39.42
39999;BME280;25696;42.646;23.368;2022-09-09T12:33:01;94560.28;;;29.80;38.84
39999;BME280;25696;42.646;23.368;2022-09-09T12:35:27;94556.69;;;29.88;38.65
39999;BME280;25696;42.646;23.368;2022-09-09T12:37:56;94554.25;;;29.87;38.15
39999;BME280;25696;42.646;23.368;2022-09-09T12:42:48;94548.84;;;29.82;38.32
39999;BME280;25696;42.646;23.368;2022-09-09T12:50:23;94546.25;;;29.77;39.10
39999;BME280;25696;42.646;23.368;2022-09-09T12:52:56;94553.19;;;29.66;39.25
39999;BME280;25696;42.646;23.368;2022-09-09T12:55:33;94551.63;;;29.90;38.73
39999;BME280;25696;42.646;23.368;2022-09-09T12:57:59;94548.22;;;30.19;37.98
39999;BME280;25696;42.646;23.368;2022-09-09T13:00:29;94535.50;;;30.35;38.24
39999;BME280;25696;42.646;23.368;2022-09-09T13:02:59;94526.84;;;30.45;37.60
39999;BME280;25696;42.646;23.368;2022-09-09T13:05:35;94525.03;;;30.32;37.62
39999;BME280;25696;42.646;23.368;2022-09-09T13:08:02;94527.47;;;30.08;38.39
39999;BME280;25696;42.646;23.368;2022-09-09T13:10:30;94523.88;;;30.07;37.88
39999;BME280;25696;42.646;23.368;2022-09-09T13:12:57;94516.03;;;30.27;37.67
39999;BME280;25696;42.646;23.368;2022-09-09T13:15:23;94515.03;;;30.48;37.28
39999;BME280;25696;42.646;23.368;2022-09-09T13:17:55;94519.75;;;30.65;37.70
39999;BME280;25696;42.646;23.368;2022-09-09T13:20:21;94512.91;;;30.62;37.38
39999;BME280;25696;42.646;23.368;2022-09-09T13:22:47;94512.44;;;30.26;37.81
39999;BME280;25696;42.646;23.368;2022-09-09T13:27:40;94515.22;;;30.52;37.33
39999;BME280;25696;42.646;23.368;2022-09-09T13:30:22;94502.19;;;30.81;37.07
39999;BME280;25696;42.646;23.368;2022-09-09T13:33:33;94499.22;;;29.89;38.61
39999;BME280;25696;42.646;23.368;2022-09-09T13:35:34;94498.09;;;29.81;38.52
39999;BME280;25696;42.646;23.368;2022-09-09T13:38:09;94480.06;;;29.05;40.11
39999;BME280;25696;42.646;23.368;2022-09-09T13:40:35;94482.25;;;28.78;41.13
39999;BME280;25696;42.646;23.368;2022-09-09T13:43:01;94496.97;;;28.56;42.21
39999;BME280;25696;42.646;23.368;2022-09-09T13:45:28;94493.59;;;28.98;41.54
39999;BME280;25696;42.646;23.368;2022-09-09T13:47:54;94491.94;;;28.97;41.59
39999;BME280;25696;42.646;23.368;2022-09-09T13:50:24;94491.31;;;28.39;42.66
39999;BME280;25696;42.646;23.368;2022-09-09T13:52:57;94473.13;;;28.24;43.23
39999;BME280;25696;42.646;23.368;2022-09-09T13:55:23;94469.41;;;28.29;42.84
39999;BME280;25696;42.646;23.368;2022-09-09T13:58:01;94465.25;;;28.40;42.78
39999;BME280;25696;42.646;23.368;2022-09-09T14:00:31;94472.63;;;28.75;41.98
39999;BME280;25696;42.646;23.368;2022-09-09T14:02:57;94482.34;;;29.03;41.22
39999;BME280;25696;42.646;23.368;2022-09-09T14:05:22;94479.88;;;28.93;41.57
39999;BME280;25696;42.646;23.368;2022-09-09T14:07:48;94474.31;;;28.93;41.38
39999;BME280;25696;42.646;23.368;2022-09-09T14:10:13;94475.19;;;29.02;41.44
39999;BME280;25696;42.646;23.368;2022-09-09T14:12:39;94475.03;;;28.68;41.86
39999;BME280;25696;42.646;23.368;2022-09-09T14:15:05;94476.59;;;28.91;41.48
39999;BME280;25696;42.646;23.368;2022-09-09T14:17:30;94474.03;;;29.03;41.08
39999;BME280;25696;42.646;23.368;2022-09-09T14:19:56;94465.72;;;29.03;41.58
39999;BME280;25696;42.646;23.368;2022-09-09T14:22:22;94479.94;;;29.10;41.53
39999;BME280;25696;42.646;23.368;2022-09-09T14:24:47;94473.63;;;29.18;41.30
39999;BME280;25696;42.646;23.368;2022-09-09T14:27:12;94465.94;;;29.15;41.03
39999;BME280;25696;42.646;23.368;2022-09-09T14:29:38;94453.66;;;29.08;40.87
39999;BME280;25696;42.646;23.368;2022-09-09T14:32:03;94455.75;;;28.94;41.41
39999;BME280;25696;42.646;23.368;2022-09-09T14:34:28;94457.88;;;29.05;41.05
39999;BME280;25696;42.646;23.368;2022-09-09T14:36:54;94461.44;;;28.97;41.22
39999;BME280;25696;42.646;23.368;2022-09-09T14:39:19;94456.88;;;28.93;41.32
39999;BME280;25696;42.646;23.368;2022-09-09T14:41:44;94465.84;;;28.90;41.42
39999;BME280;25696;42.646;23.368;2022-09-09T14:44:10;94466.16;;;28.88;41.93
39999;BME280;25696;42.646;23.368;2022-09-09T14:46:36;94456.63;;;28.72;42.05
39999;BME280;25696;42.646;23.368;2022-09-09T14:49:01;94452.09;;;28.76;42.26
39999;BME280;25696;42.646;23.368;2022-09-09T14:51:27;94456.63;;;28.72;42.43
39999;BME280;25696;42.646;23.368;2022-09-09T14:53:54;94456.63;;;28.72;42.25
39999;BME280;25696;42.646;23.368;2022-09-09T14:56:20;94453.56;;;28.51;43.06